Main page
METAR-TAF:

METAR-TAF

Airports :

Nebraska City Municipal Airport

Nebraska City, Nebraska, United States

latitude: 40-36N, longitude: 095-51W, elevation: 1161 ft

Current weather observation

The report was made 26 minutes ago, at 15:15 UTC
Wind 16 mph from the North with gusts up to 22 mph
Temperature 68°F
Humidity 83%
Pressure 29.95 in. Hg
Visibility: 10 miles
Clear sky

METAR: KAFK 281515Z AUTO 35014G19KT 10SM CLR 20/17 A2995 RMK AO2 T02030171

Time: 10:41 (15:41 UTC)


TAF: missing

Weather observations and forecasts of more than 4000 airports (METAR and TAF reports).

The available stations are represented by yellow and red dots on the map.

Hover mouse over dot to see the name of the station.

Then click to see weather observations and forecasts.

To change the map : click on the green buttons with a black cross to zoom in, on the green button with a dash to zoom out, or on the green arrows for adjacent maps.


METAR-TAF: